createdAt,value
2022-08-20T00:01:12.571Z,1.63
2022-08-20T00:03:41.618Z,1.60
2022-08-20T00:06:23.321Z,1.58
2022-08-20T00:08:50.969Z,1.65
2022-08-20T00:11:22.899Z,1.55
2022-08-20T00:13:55.625Z,1.60
2022-08-20T00:16:25.308Z,1.98
2022-08-20T00:18:52.239Z,1.63
2022-08-20T00:21:21.207Z,1.55
2022-08-20T00:23:52.343Z,1.67
2022-08-20T00:26:20.392Z,1.70
2022-08-20T00:28:47.532Z,1.52
2022-08-20T00:31:19.299Z,1.77
2022-08-20T00:33:47.134Z,1.38
2022-08-20T00:36:15.784Z,1.63
2022-08-20T00:38:44.226Z,1.70
2022-08-20T00:41:14.778Z,1.83
2022-08-20T00:43:52.189Z,1.88
2022-08-20T00:46:31.682Z,1.60
2022-08-20T00:49:02.510Z,1.75
2022-08-20T00:51:35.187Z,1.67
2022-08-20T00:54:07.320Z,1.60
2022-08-20T00:59:05.150Z,1.80
2022-08-20T01:01:34.595Z,1.92
2022-08-20T01:04:21.404Z,2.08
2022-08-20T01:06:48.673Z,1.73
2022-08-20T01:09:15.433Z,1.90
2022-08-20T01:11:42.523Z,1.90
2022-08-20T01:14:30.176Z,1.80
2022-08-20T01:17:02.409Z,1.70
2022-08-20T01:19:35.155Z,1.40
2022-08-20T01:22:26.649Z,1.55
2022-08-20T01:25:05.066Z,1.77
2022-08-20T01:27:33.680Z,1.80
2022-08-20T01:30:09.904Z,1.95
2022-08-20T01:32:36.593Z,1.50
2022-08-20T01:35:04.858Z,1.73
2022-08-20T01:37:31.920Z,1.88
2022-08-20T01:39:59.152Z,1.38
2022-08-20T01:42:52.818Z,1.88
2022-08-20T01:45:28.009Z,1.88
2022-08-20T01:47:57.655Z,1.52
2022-08-20T01:50:27.537Z,1.70
2022-08-20T01:53:09.309Z,1.48
2022-08-20T01:55:38.219Z,1.70
2022-08-20T01:58:05.451Z,1.65
2022-08-20T02:00:32.644Z,1.85
2022-08-20T02:02:59.314Z,1.52
2022-08-20T02:05:30.618Z,1.42
2022-08-20T02:07:57.737Z,1.80
2022-08-20T02:10:24.644Z,1.60
2022-08-20T02:12:51.388Z,1.42
2022-08-20T02:15:34.742Z,1.50
2022-08-20T02:18:08.254Z,1.63
2022-08-20T02:20:36.453Z,1.70
2022-08-20T02:23:03.614Z,1.33
2022-08-20T02:25:32.829Z,1.83
2022-08-20T02:28:02.528Z,1.70
2022-08-20T02:30:40.444Z,1.50
2022-08-20T02:33:09.939Z,1.42
2022-08-20T02:35:38.447Z,1.73
2022-08-20T02:38:05.637Z,2.15
2022-08-20T02:40:33.256Z,1.60
2022-08-20T02:43:01.600Z,1.85
2022-08-20T02:45:30.340Z,1.98
2022-08-20T02:47:59.170Z,1.75
2022-08-20T02:50:27.208Z,1.83
2022-08-20T02:52:54.575Z,2.00
2022-08-20T02:55:25.935Z,1.77
2022-08-20T02:57:58.662Z,1.50
2022-08-20T03:00:27.453Z,2.08
2022-08-20T03:02:54.279Z,1.73
2022-08-20T03:05:21.063Z,1.63
2022-08-20T03:07:53.501Z,1.60
2022-08-20T03:10:29.870Z,1.92
2022-08-20T03:12:56.844Z,1.80
2022-08-20T03:15:23.992Z,1.70
2022-08-20T03:17:50.703Z,2.00
2022-08-20T03:20:17.480Z,1.70
2022-08-20T03:22:51.794Z,1.50
2022-08-20T03:25:18.606Z,1.52
2022-08-20T03:27:45.653Z,1.98
2022-08-20T03:30:15.006Z,1.80
2022-08-20T03:32:41.953Z,1.90
2022-08-20T03:35:16.212Z,1.70
2022-08-20T03:37:48.100Z,1.70
2022-08-20T03:40:21.064Z,2.03
2022-08-20T03:42:47.649Z,2.00
2022-08-20T03:45:19.799Z,1.50
2022-08-20T03:47:48.489Z,1.88
2022-08-20T03:50:23.546Z,1.75
2022-08-20T03:52:54.736Z,1.65
2022-08-20T03:55:23.251Z,1.70
2022-08-20T03:57:56.749Z,1.60
2022-08-20T04:00:28.102Z,1.60
2022-08-20T04:02:57.242Z,2.13
2022-08-20T04:05:30.175Z,2.10
2022-08-20T04:08:03.253Z,1.67
2022-08-20T04:10:31.490Z,2.10
2022-08-20T04:12:58.126Z,1.60
2022-08-20T04:15:26.209Z,1.95
2022-08-20T04:17:54.235Z,1.90
2022-08-20T04:20:25.956Z,1.42
2022-08-20T04:22:58.611Z,2.00
2022-08-20T04:25:35.868Z,1.50
2022-08-20T04:28:05.608Z,1.75
2022-08-20T04:30:33.096Z,1.50
2022-08-20T04:33:00.786Z,1.70
2022-08-20T04:35:28.876Z,1.80
2022-08-20T04:38:04.932Z,1.80
2022-08-20T04:41:06.926Z,2.20
2022-08-20T04:43:35.957Z,2.00
2022-08-20T04:46:06.702Z,1.55
2022-08-20T04:48:33.711Z,1.60
2022-08-20T04:51:02.159Z,1.90
2022-08-20T04:53:31.057Z,2.08
2022-08-20T04:56:00.889Z,2.17
2022-08-20T04:58:34.480Z,1.80
2022-08-20T05:01:05.269Z,2.20
2022-08-20T05:03:32.978Z,1.70
2022-08-20T05:06:01.401Z,1.50
2022-08-20T05:08:29.306Z,1.95
2022-08-20T05:11:24.973Z,2.13
2022-08-20T05:13:44.322Z,2.08
2022-08-20T05:16:11.012Z,1.83
2022-08-20T05:18:37.653Z,1.50
2022-08-20T05:21:06.207Z,2.10
2022-08-20T05:23:39.710Z,1.90
2022-08-20T05:26:07.646Z,1.85
2022-08-20T05:28:36.887Z,1.98
2022-08-20T05:31:21.152Z,2.13
2022-08-20T05:33:51.742Z,2.28
2022-08-20T05:36:18.538Z,2.10
2022-08-20T05:38:45.271Z,1.90
2022-08-20T05:41:27.558Z,1.87
2022-08-20T05:44:01.499Z,2.00
2022-08-20T05:46:31.846Z,2.00
2022-08-20T05:49:00.114Z,2.38
2022-08-20T05:51:28.589Z,1.80
2022-08-20T05:53:57.981Z,2.10
2022-08-20T05:56:26.941Z,2.00
2022-08-20T05:58:53.878Z,1.90
2022-08-20T06:01:20.756Z,1.92
2022-08-20T06:04:06.049Z,2.00
2022-08-20T06:06:45.156Z,1.80
2022-08-20T06:09:14.470Z,1.77
2022-08-20T06:11:41.308Z,1.75
2022-08-20T06:14:08.201Z,1.90
2022-08-20T06:16:35.002Z,1.80
2022-08-20T06:19:05.527Z,1.92
2022-08-20T06:21:32.252Z,1.83
2022-08-20T06:24:00.552Z,2.03
2022-08-20T06:26:29.974Z,2.03
2022-08-20T06:28:58.567Z,1.83
2022-08-20T06:31:25.354Z,1.63
2022-08-20T06:33:52.149Z,1.60
2022-08-20T06:36:19.516Z,1.90
2022-08-20T06:38:47.022Z,1.60
2022-08-20T06:41:14.217Z,1.45
2022-08-20T06:43:40.910Z,1.75
2022-08-20T06:46:08.340Z,1.83
2022-08-20T06:48:37.173Z,1.70
2022-08-20T06:51:06.550Z,1.70
2022-08-20T06:53:33.151Z,1.77
2022-08-20T06:55:59.992Z,1.45
2022-08-20T06:58:36.856Z,1.90
2022-08-20T07:01:10.270Z,1.63
2022-08-20T07:03:39.090Z,1.60
2022-08-20T07:06:06.611Z,1.83
2022-08-20T07:08:34.114Z,1.58
2022-08-20T07:11:00.957Z,1.55
2022-08-20T07:13:29.261Z,1.70
2022-08-20T07:15:56.384Z,1.55
2022-08-20T07:18:28.303Z,1.40
2022-08-20T07:21:04.450Z,1.70
2022-08-20T07:23:31.787Z,1.60
2022-08-20T07:25:59.152Z,1.52
2022-08-20T07:28:31.933Z,1.60
2022-08-20T07:31:17.874Z,1.50
2022-08-20T07:33:47.392Z,1.63
2022-08-20T07:36:17.990Z,1.65
2022-08-20T07:38:48.926Z,1.40
2022-08-20T07:41:15.624Z,1.50
2022-08-20T07:43:45.780Z,1.80
2022-08-20T07:46:15.003Z,1.40
2022-08-20T07:48:46.871Z,1.38
2022-08-20T07:51:17.904Z,1.40
2022-08-20T07:53:46.923Z,1.67
2022-08-20T07:56:17.666Z,1.90
2022-08-20T07:58:50.576Z,1.80
2022-08-20T08:01:28.673Z,1.63
2022-08-20T08:03:57.650Z,1.70
2022-08-20T08:06:29.278Z,1.70
2022-08-20T08:09:17.594Z,1.65
2022-08-20T08:11:51.830Z,1.45
2022-08-20T08:14:24.988Z,1.80
2022-08-20T08:16:57.381Z,1.60
2022-08-20T08:19:27.052Z,1.55
2022-08-20T08:22:02.111Z,1.55
2022-08-20T08:24:29.059Z,1.70
2022-08-20T08:26:55.765Z,1.67
2022-08-20T08:29:22.497Z,1.80
2022-08-20T08:31:49.189Z,1.58
2022-08-20T08:34:15.959Z,1.50
2022-08-20T08:36:44.229Z,1.77
2022-08-20T08:39:11.044Z,1.85
2022-08-20T08:41:49.761Z,1.60
2022-08-20T08:44:23.283Z,1.60
2022-08-20T08:46:53.673Z,1.67
2022-08-20T08:49:33.932Z,1.80
2022-08-20T08:52:28.659Z,1.83
2022-08-20T08:54:58.764Z,1.70
2022-08-20T08:57:26.142Z,1.63
2022-08-20T09:00:04.713Z,1.70
2022-08-20T09:02:34.068Z,1.60
2022-08-20T09:05:09.253Z,1.75
2022-08-20T09:07:36.575Z,1.70
2022-08-20T09:10:03.800Z,1.70
2022-08-20T09:12:30.544Z,1.80
2022-08-20T09:14:57.565Z,1.58
2022-08-20T09:17:24.661Z,1.45
2022-08-20T09:19:52.575Z,1.70
2022-08-20T09:22:22.266Z,1.58
2022-08-20T09:24:50.213Z,1.70
2022-08-20T09:27:17.324Z,1.63
2022-08-20T09:29:44.212Z,2.40
2022-08-20T09:32:16.608Z,1.83
2022-08-20T09:34:51.819Z,1.60
2022-08-20T09:37:19.322Z,1.50
2022-08-20T09:39:46.057Z,1.70
2022-08-20T09:42:22.571Z,1.63
2022-08-20T09:44:49.607Z,1.73
2022-08-20T09:47:17.612Z,1.50
2022-08-20T09:49:45.336Z,1.50
2022-08-20T09:52:22.727Z,1.70
2022-08-20T09:54:50.517Z,1.70
2022-08-20T09:57:18.208Z,1.60
2022-08-20T09:59:48.711Z,1.65
2022-08-20T10:02:15.394Z,1.70
2022-08-20T10:04:49.212Z,1.70
2022-08-20T10:07:16.145Z,1.92
2022-08-20T10:09:43.200Z,1.60
2022-08-20T10:12:10.133Z,1.40
2022-08-20T10:14:36.800Z,1.63
2022-08-20T10:17:04.092Z,1.27
2022-08-20T10:19:31.631Z,1.60
2022-08-20T10:21:59.897Z,1.40
2022-08-20T10:24:27.184Z,1.50
2022-08-20T10:26:58.980Z,1.35
2022-08-20T10:29:26.668Z,1.65
2022-08-20T10:31:55.026Z,1.50
2022-08-20T10:34:21.663Z,1.60
2022-08-20T10:36:49.753Z,1.23
2022-08-20T10:39:16.622Z,1.40
2022-08-20T10:41:43.319Z,1.40
2022-08-20T10:44:10.300Z,1.55
2022-08-20T10:46:36.908Z,1.70
2022-08-20T10:49:03.979Z,1.75
2022-08-20T10:51:32.493Z,1.60
2022-08-20T10:54:00.336Z,1.60
2022-08-20T10:56:26.987Z,1.73
2022-08-20T10:58:53.790Z,1.48
2022-08-20T11:01:31.462Z,1.48
2022-08-20T11:04:00.878Z,1.40
2022-08-20T11:06:27.634Z,1.50
2022-08-20T11:08:54.297Z,1.42
2022-08-20T11:11:23.920Z,1.58
2022-08-20T11:13:50.662Z,1.50
2022-08-20T11:16:17.393Z,1.40
2022-08-20T11:18:47.331Z,1.48
2022-08-20T11:21:14.622Z,1.50
2022-08-20T11:23:41.353Z,1.63
2022-08-20T11:26:08.645Z,1.55
2022-08-20T11:28:36.753Z,1.35
2022-08-20T11:31:03.472Z,1.75
2022-08-20T11:33:30.367Z,1.63
2022-08-20T11:35:57.165Z,1.80
2022-08-20T11:38:24.004Z,1.45
2022-08-20T11:40:50.867Z,1.70
2022-08-20T11:43:18.320Z,1.40
2022-08-20T11:45:50.682Z,1.73
2022-08-20T11:48:18.244Z,1.70
2022-08-20T11:50:46.259Z,1.60
2022-08-20T11:53:13.063Z,1.77
2022-08-20T11:55:41.726Z,1.85
2022-08-20T11:58:09.623Z,1.60
2022-08-20T12:00:37.218Z,1.40
2022-08-20T12:03:09.588Z,1.60
2022-08-20T12:05:38.546Z,1.40
2022-08-20T12:08:06.188Z,1.73
2022-08-20T12:10:34.453Z,1.70
2022-08-20T12:13:02.662Z,1.52
2022-08-20T12:15:32.574Z,1.60
2022-08-20T12:17:59.479Z,1.95
2022-08-20T12:20:26.314Z,1.50
2022-08-20T12:22:54.122Z,1.40
2022-08-20T12:25:21.065Z,1.42
2022-08-20T12:27:47.948Z,1.60
2022-08-20T12:30:18.764Z,1.65
2022-08-20T12:32:46.113Z,1.50
2022-08-20T12:35:16.153Z,1.80
2022-08-20T12:37:44.192Z,1.50
2022-08-20T12:40:15.776Z,1.50
2022-08-20T12:45:11.358Z,1.50
2022-08-20T12:47:40.836Z,1.85
2022-08-20T12:50:29.680Z,1.75
2022-08-20T12:52:59.348Z,1.52
2022-08-20T12:55:26.158Z,1.60
2022-08-20T12:57:56.698Z,1.70
2022-08-20T13:00:30.164Z,1.63
2022-08-20T13:02:59.288Z,1.50
2022-08-20T13:05:28.300Z,1.80
2022-08-20T13:07:55.839Z,1.98
2022-08-20T13:10:29.017Z,1.50
2022-08-20T13:12:56.103Z,1.63
2022-08-20T13:15:23.837Z,1.70
2022-08-20T13:17:55.128Z,1.50
2022-08-20T13:20:25.661Z,1.70
2022-08-20T13:22:58.100Z,1.70
2022-08-20T13:25:25.515Z,1.88
2022-08-20T13:27:58.721Z,1.63
2022-08-20T13:30:26.427Z,1.75
2022-08-20T13:33:01.416Z,1.63
2022-08-20T13:35:28.387Z,1.60
2022-08-20T13:37:55.181Z,1.70
2022-08-20T13:40:22.089Z,1.50
2022-08-20T13:42:49.075Z,1.63
2022-08-20T13:45:15.980Z,1.77
2022-08-20T13:47:42.977Z,1.40
2022-08-20T13:50:20.762Z,1.67
2022-08-20T13:52:48.390Z,1.52
2022-08-20T13:55:18.995Z,1.58
2022-08-20T13:57:47.236Z,1.45
2022-08-20T14:00:18.230Z,1.50
2022-08-20T14:02:45.011Z,1.45
2022-08-20T14:05:12.237Z,1.60
2022-08-20T14:07:43.616Z,1.80
2022-08-20T14:10:18.250Z,1.60
2022-08-20T14:12:46.421Z,1.65
2022-08-20T14:15:13.463Z,1.63
2022-08-20T14:17:43.468Z,1.50
2022-08-20T14:20:14.165Z,1.40
2022-08-20T14:22:42.657Z,1.85
2022-08-20T14:25:11.982Z,1.25
2022-08-20T14:27:39.227Z,1.58
2022-08-20T14:30:09.557Z,1.60
2022-08-20T14:32:36.433Z,1.48
2022-08-20T14:35:03.279Z,1.60
2022-08-20T14:37:33.111Z,1.48
2022-08-20T14:40:01.628Z,1.40
2022-08-20T14:42:29.892Z,1.73
2022-08-20T14:44:59.354Z,1.55
2022-08-20T14:47:34.760Z,1.60
2022-08-20T14:50:06.506Z,1.60
2022-08-20T14:55:06.052Z,1.42
2022-08-20T14:57:34.011Z,1.52
2022-08-20T15:00:01.063Z,1.80
2022-08-20T15:02:27.921Z,2.13
2022-08-20T15:04:55.682Z,1.63
2022-08-20T15:07:31.841Z,1.80
2022-08-20T15:10:00.527Z,1.60
2022-08-20T15:12:27.910Z,1.90
2022-08-20T15:14:55.393Z,1.80
2022-08-20T15:17:26.674Z,1.70
2022-08-20T15:19:53.973Z,1.80
2022-08-20T15:22:22.071Z,2.28
2022-08-20T15:24:49.155Z,2.08
2022-08-20T15:27:22.866Z,2.08
2022-08-20T15:29:51.152Z,1.95
2022-08-20T15:32:19.092Z,1.80
2022-08-20T15:34:47.626Z,1.90
2022-08-20T15:37:20.981Z,1.60
2022-08-20T15:39:48.708Z,2.00
2022-08-20T15:42:16.039Z,1.67
2022-08-20T15:44:43.825Z,1.70
2022-08-20T15:47:16.405Z,1.80
2022-08-20T15:49:44.381Z,2.08
2022-08-20T15:52:11.909Z,1.67
2022-08-20T15:54:39.270Z,1.60
2022-08-20T15:57:11.969Z,1.85
2022-08-20T16:00:20.888Z,1.80
2022-08-20T16:02:53.561Z,1.80
2022-08-20T16:05:28.037Z,1.67
2022-08-20T16:08:30.465Z,1.55
2022-08-20T16:11:33.107Z,1.83
2022-08-20T16:17:30.154Z,1.67
2022-08-20T16:20:08.906Z,1.90
2022-08-20T16:22:41.197Z,1.70
2022-08-20T16:25:08.954Z,1.48
2022-08-20T16:27:57.229Z,1.52
2022-08-20T16:30:36.464Z,1.55
2022-08-20T16:33:15.047Z,1.80
2022-08-20T16:35:57.102Z,1.60
2022-08-20T16:38:28.695Z,1.50
2022-08-20T16:41:01.514Z,1.60
2022-08-20T16:43:51.327Z,1.60
2022-08-20T16:46:21.214Z,1.65
2022-08-20T16:48:58.021Z,1.60
2022-08-20T16:51:51.925Z,1.60
2022-08-20T16:54:31.050Z,1.48
2022-08-20T16:57:06.400Z,1.50
2022-08-20T16:59:33.718Z,1.48
2022-08-20T17:02:10.485Z,1.58
2022-08-20T17:04:59.594Z,1.67
2022-08-20T17:07:54.638Z,1.60
2022-08-20T17:10:28.096Z,1.75
2022-08-20T17:13:13.562Z,1.45
2022-08-20T17:15:44.027Z,1.70
2022-08-20T17:18:38.653Z,1.40
2022-08-20T17:21:23.066Z,1.48
2022-08-20T17:24:04.165Z,1.80
2022-08-20T17:26:42.908Z,1.50
2022-08-20T17:29:25.948Z,1.75
2022-08-20T17:32:26.365Z,1.60
2022-08-20T17:35:01.556Z,1.80
2022-08-20T17:37:33.503Z,1.73
2022-08-20T17:40:08.943Z,1.80
2022-08-20T17:43:01.409Z,1.77
2022-08-20T17:45:42.319Z,1.70
2022-08-20T17:48:16.970Z,2.08
2022-08-20T17:50:44.278Z,1.92
2022-08-20T17:53:34.147Z,1.60
2022-08-20T17:56:21.551Z,1.65
2022-08-20T17:59:03.190Z,2.38
2022-08-20T18:03:58.093Z,1.52
2022-08-20T18:06:30.657Z,2.00
2022-08-20T18:09:06.900Z,2.20
2022-08-20T18:11:43.403Z,2.47
2022-08-20T18:14:28.836Z,2.78
2022-08-20T18:16:58.361Z,2.55
2022-08-20T18:19:52.475Z,2.53
2022-08-20T18:22:25.061Z,2.40
2022-08-20T18:25:02.774Z,1.65
2022-08-20T18:27:40.025Z,2.20
2022-08-20T18:30:18.933Z,1.90
2022-08-20T18:32:48.167Z,2.58
2022-08-20T18:35:23.866Z,2.28
2022-08-20T18:37:50.612Z,2.58
2022-08-20T18:40:33.221Z,2.33
2022-08-20T18:43:31.678Z,2.60
2022-08-20T18:46:14.563Z,2.10
2022-08-20T18:48:51.453Z,2.65
2022-08-20T18:51:21.038Z,2.60
2022-08-20T18:53:51.919Z,1.83
2022-08-20T18:56:33.477Z,2.78
2022-08-20T18:59:05.484Z,2.40
2022-08-20T19:01:36.069Z,3.00
2022-08-20T19:04:16.738Z,2.88
2022-08-20T19:07:03.767Z,3.33
2022-08-20T19:09:46.322Z,3.30
2022-08-20T19:12:35.140Z,3.20
2022-08-20T19:15:11.782Z,3.53
2022-08-20T19:17:56.718Z,3.85
2022-08-20T19:20:28.285Z,3.50
2022-08-20T19:23:03.442Z,2.42
2022-08-20T19:25:38.092Z,2.80
2022-08-20T19:28:20.549Z,4.10
2022-08-20T19:30:47.577Z,4.20
2022-08-20T19:33:14.398Z,3.75
2022-08-20T19:35:41.127Z,3.58
2022-08-20T19:38:15.556Z,3.90
2022-08-20T19:40:46.228Z,3.95
2022-08-20T19:43:17.153Z,3.92
2022-08-20T19:45:54.564Z,3.78
2022-08-20T19:48:43.451Z,4.10
2022-08-20T19:51:53.277Z,4.40
2022-08-20T19:54:27.093Z,4.80
2022-08-20T19:57:06.860Z,5.47
2022-08-20T19:59:33.754Z,5.07
2022-08-20T20:02:20.641Z,5.00
2022-08-20T20:04:55.011Z,4.97
2022-08-20T20:07:45.513Z,4.80
2022-08-20T20:10:28.358Z,5.18
2022-08-20T20:12:57.947Z,4.95
2022-08-20T20:15:25.732Z,4.55
2022-08-20T20:17:54.081Z,4.90
2022-08-20T20:20:30.687Z,5.20
2022-08-20T20:23:06.345Z,4.80
2022-08-20T20:25:34.144Z,4.72
2022-08-20T20:28:24.397Z,5.13
2022-08-20T20:30:51.113Z,4.82
2022-08-20T20:33:26.347Z,4.63
2022-08-20T20:36:35.307Z,4.80
2022-08-20T20:39:12.398Z,4.95
2022-08-20T20:41:52.161Z,5.03
2022-08-20T20:44:23.216Z,5.00
2022-08-20T20:46:55.040Z,4.60
2022-08-20T20:52:01.387Z,4.55
2022-08-20T20:57:16.893Z,4.25
2022-08-20T20:59:43.901Z,4.18
2022-08-20T21:02:10.622Z,4.00
2022-08-20T21:04:40.721Z,4.35
2022-08-20T21:09:39.299Z,4.10
2022-08-20T21:12:06.866Z,3.90
2022-08-20T21:14:34.271Z,3.95
2022-08-20T21:17:03.213Z,3.70
2022-08-20T21:19:30.461Z,3.95
2022-08-20T21:21:57.104Z,3.38
2022-08-20T21:24:23.951Z,3.90
2022-08-20T21:26:51.525Z,3.55
2022-08-20T21:29:32.707Z,3.40
2022-08-20T21:32:00.244Z,3.50
2022-08-20T21:34:27.036Z,3.53
2022-08-20T21:36:53.729Z,3.15
2022-08-20T21:39:21.445Z,3.00
2022-08-20T21:41:48.530Z,3.00
2022-08-20T21:44:26.094Z,3.05
2022-08-20T21:46:54.713Z,2.90
2022-08-20T21:49:22.701Z,3.10
2022-08-20T21:51:50.396Z,3.05
2022-08-20T21:54:17.786Z,2.80
2022-08-20T21:56:49.573Z,2.90
2022-08-20T21:59:17.234Z,2.90
2022-08-20T22:01:43.986Z,3.03
2022-08-20T22:04:10.765Z,2.85
2022-08-20T22:06:37.457Z,2.78
2022-08-20T22:09:04.759Z,2.90
2022-08-20T22:11:31.518Z,2.88
2022-08-20T22:13:58.124Z,3.20
2022-08-20T22:16:25.429Z,2.65
2022-08-20T22:18:52.757Z,2.80
2022-08-20T22:21:28.345Z,2.97
2022-08-20T22:24:00.200Z,2.78
2022-08-20T22:26:27.560Z,2.70
2022-08-20T22:28:54.662Z,2.42
2022-08-20T22:31:26.105Z,2.80
2022-08-20T22:33:52.902Z,2.63
2022-08-20T22:36:19.650Z,3.30
2022-08-20T22:38:52.787Z,3.65
2022-08-20T22:41:22.683Z,3.00
2022-08-20T22:43:56.669Z,3.22
2022-08-20T22:46:26.849Z,3.35
2022-08-20T22:48:54.234Z,3.10
2022-08-20T22:51:26.883Z,3.40
2022-08-20T22:53:53.713Z,2.70
2022-08-20T22:56:21.807Z,2.95
2022-08-20T22:58:50.311Z,3.13
2022-08-20T23:01:18.400Z,3.10
2022-08-20T23:03:45.391Z,3.30
2022-08-20T23:06:12.931Z,3.08
2022-08-20T23:08:40.651Z,3.08
2022-08-20T23:11:07.639Z,2.60
2022-08-20T23:13:34.615Z,2.90
2022-08-20T23:16:01.761Z,2.80
2022-08-20T23:18:29.466Z,3.13
2022-08-20T23:20:57.513Z,2.50
2022-08-20T23:23:26.550Z,2.40
2022-08-20T23:25:54.002Z,3.15
2022-08-20T23:28:24.663Z,2.75
2022-08-20T23:30:51.997Z,2.85
2022-08-20T23:33:19.136Z,3.08
2022-08-20T23:35:46.304Z,2.70
2022-08-20T23:38:13.702Z,2.63
2022-08-20T23:40:41.358Z,2.65
2022-08-20T23:43:09.596Z,2.60
2022-08-20T23:45:39.626Z,2.47
2022-08-20T23:48:07.934Z,2.60
2022-08-20T23:50:34.731Z,2.42
2022-08-20T23:53:01.523Z,2.10
2022-08-20T23:55:28.241Z,2.40
2022-08-20T23:57:55.043Z,2.10
